Time;durP1;ratioP1;P1;durP2;ratioP2;P2;SDS_P1;SDS_P2;PMS_P1;PMS_P2;Temp;Humidity;BMP_temperature;BMP_pressure;BME280_temperature;BME280_humidity;BME280_pressure;Samples;Min_cycle;Max_cycle;Signal;HPM_P1;HPM_P2
2022/01/24 00:01:05;;;;;;;;;;;8.00;66.70;;;;;;5053573;28;19905;-64
2022/01/24 00:03:31;;;;;;;;;;;8.00;66.70;;;;;;5053430;28;19909;-64
2022/01/24 00:05:57;;;;;;;;;;;8.00;66.70;;;;;;5053461;28;19912;-64
2022/01/24 00:08:22;;;;;;;;;;;8.00;66.70;;;;;;5053174;28;20353;-63
2022/01/24 00:10:50;;;;;;;;;;;8.00;66.70;;;;;;5053520;28;19905;-63
2022/01/24 00:14:12;;;;;;;;;;;8.00;66.60;;;;;;5053340;28;20270;-64
2022/01/24 00:16:26;;;;;;;;;;;8.00;66.60;;;;;;5052839;28;19913;-63
2022/01/24 00:26:55;;;;;;;;;;;8.10;66.80;;;;;;5073304;28;19939;-63
2022/01/24 00:29:22;;;;;;;;;;;8.10;66.80;;;;;;5055256;28;19912;-64
2022/01/24 00:31:51;;;;;;;;;;;8.10;66.80;;;;;;5073211;28;19905;-64
2022/01/24 00:34:17;;;;;;;;;;;8.20;66.80;;;;;;5073273;28;20026;-64
2022/01/24 00:36:46;;;;;;;;;;;8.20;66.70;;;;;;5072896;28;20348;-63
2022/01/24 00:39:11;;;;;;;;;;;8.20;66.70;;;;;;5088314;28;19942;-63
2022/01/24 00:42:30;;;;;;;;;;;8.20;66.60;;;;;;5055203;28;20006;-63
2022/01/24 00:47:02;;;;;;;;;;;8.20;66.70;;;;;;5073452;28;19904;-63
2022/01/24 00:49:50;;;;;;;;;;;8.20;66.70;;;;;;5076750;28;19915;-63
2022/01/24 00:55:01;;;;;;;;;;;8.20;66.60;;;;;;5076550;28;19916;-63
2022/01/24 00:57:27;;;;;;;;;;;8.20;66.60;;;;;;5076323;28;19908;-63
2022/01/24 00:59:52;;;;;;;;;;;8.20;66.60;;;;;;5058644;28;19912;-64
2022/01/24 01:02:19;;;;;;;;;;;8.20;66.60;;;;;;5076378;28;19908;-64
2022/01/24 01:05:04;;;;;;;;;;;8.20;66.60;;;;;;5058464;28;19909;-63
2022/01/24 01:18:16;;;;;;;;;;;8.30;66.80;;;;;;5075891;28;20379;-65
2022/01/24 01:21:24;;;;;;;;;;;8.30;66.80;;;;;;5075996;28;20070;-64
2022/01/24 01:23:33;;;;;;;;;;;8.30;66.70;;;;;;5065344;28;19905;-63
2022/01/24 01:26:01;;;;;;;;;;;8.30;66.70;;;;;;5091671;28;19927;-63
2022/01/24 01:28:28;;;;;;;;;;;8.30;66.80;;;;;;5075985;28;19905;-64
2022/01/24 01:30:58;;;;;;;;;;;8.30;66.90;;;;;;5076011;28;19916;-63
2022/01/24 01:38:44;;;;;;;;;;;8.30;66.70;;;;;;5075947;28;19908;-63
2022/01/24 01:52:29;;;;;;;;;;;8.30;66.80;;;;;;5075464;28;20400;-63
2022/01/24 01:55:11;;;;;;;;;;;8.30;66.80;;;;;;5090959;28;19912;-63
2022/01/24 01:57:37;;;;;;;;;;;8.30;66.80;;;;;;5057628;28;19909;-63
2022/01/24 02:00:04;;;;;;;;;;;8.30;66.70;;;;;;5056919;28;19905;-64
2022/01/24 02:02:30;;;;;;;;;;;8.30;66.80;;;;;;5075330;28;19912;-63
2022/01/24 02:04:56;;;;;;;;;;;8.30;66.80;;;;;;5057362;28;20332;-63
2022/01/24 02:07:22;;;;;;;;;;;8.30;66.70;;;;;;5075220;28;19905;-63
2022/01/24 02:09:48;;;;;;;;;;;8.30;66.60;;;;;;5075557;28;20292;-63
2022/01/24 02:12:16;;;;;;;;;;;8.20;66.50;;;;;;5074905;28;19908;-63
2022/01/24 02:14:49;;;;;;;;;;;8.20;66.40;;;;;;5057023;28;19999;-63
2022/01/24 02:17:22;;;;;;;;;;;8.20;66.40;;;;;;5075257;28;19917;-65
2022/01/24 02:20:11;;;;;;;;;;;8.20;66.40;;;;;;5056822;28;20324;-63
2022/01/24 02:22:49;;;;;;;;;;;8.20;66.50;;;;;;5074978;28;19905;-63
2022/01/24 02:25:27;;;;;;;;;;;8.10;66.50;;;;;;5074562;28;19991;-63
2022/01/24 02:28:00;;;;;;;;;;;8.20;66.60;;;;;;5074978;28;19905;-63
2022/01/24 02:30:53;;;;;;;;;;;8.10;66.60;;;;;;5056679;28;19911;-63
2022/01/24 02:33:19;;;;;;;;;;;8.10;66.50;;;;;;5074555;28;19904;-63
2022/01/24 02:35:45;;;;;;;;;;;8.10;66.50;;;;;;5074416;28;19916;-63
2022/01/24 02:38:26;;;;;;;;;;;8.10;66.60;;;;;;5074707;28;19909;-63
2022/01/24 02:49:09;;;;;;;;;;;8.20;66.80;;;;;;5074283;28;19911;-64
2022/01/24 02:51:57;;;;;;;;;;;8.20;66.90;;;;;;5074423;28;19908;-63
2022/01/24 02:54:21;;;;;;;;;;;8.20;66.90;;;;;;5073534;28;19935;-64
2022/01/24 02:56:50;;;;;;;;;;;8.20;66.80;;;;;;5056386;28;19908;-63
2022/01/24 02:59:16;;;;;;;;;;;8.20;66.70;;;;;;5074284;28;19905;-63
2022/01/24 03:01:42;;;;;;;;;;;8.10;66.50;;;;;;5073819;28;19905;-63
2022/01/24 03:04:09;;;;;;;;;;;8.10;66.40;;;;;;5056266;28;20241;-64
2022/01/24 03:06:37;;;;;;;;;;;8.10;66.50;;;;;;5056067;28;19934;-64
2022/01/24 03:09:04;;;;;;;;;;;8.10;66.50;;;;;;5089740;28;20328;-63
2022/01/24 03:11:50;;;;;;;;;;;8.10;66.60;;;;;;5073313;28;19904;-63
2022/01/24 03:14:15;;;;;;;;;;;8.10;66.60;;;;;;5073457;28;20018;-63
2022/01/24 03:16:41;;;;;;;;;;;8.10;66.60;;;;;;5074075;28;19940;-63
2022/01/24 03:19:07;;;;;;;;;;;8.10;66.50;;;;;;5073685;28;19920;-63
2022/01/24 03:21:33;;;;;;;;;;;8.10;66.50;;;;;;5055735;28;19905;-63
2022/01/24 03:23:58;;;;;;;;;;;8.10;66.50;;;;;;5073724;28;19935;-64
2022/01/24 03:26:24;;;;;;;;;;;8.10;66.50;;;;;;5073897;28;19914;-63
2022/01/24 03:28:50;;;;;;;;;;;8.10;66.50;;;;;;5073895;28;19905;-63
2022/01/24 03:31:15;;;;;;;;;;;8.10;66.60;;;;;;5056084;28;19904;-63
2022/01/24 03:33:41;;;;;;;;;;;8.10;66.60;;;;;;5073420;28;19954;-63
2022/01/24 03:36:07;;;;;;;;;;;8.10;66.60;;;;;;5073489;28;20030;-63
2022/01/24 03:38:32;;;;;;;;;;;8.10;66.60;;;;;;5055729;28;19999;-63
2022/01/24 03:40:58;;;;;;;;;;;8.10;66.60;;;;;;5073488;28;19905;-65
2022/01/24 03:43:24;;;;;;;;;;;8.00;66.50;;;;;;5073780;28;19983;-64
2022/01/24 03:46:08;;;;;;;;;;;8.00;66.50;;;;;;5074059;28;19905;-63
2022/01/24 03:48:44;;;;;;;;;;;8.00;66.50;;;;;;5073507;28;19904;-64
2022/01/24 03:51:13;;;;;;;;;;;8.00;66.60;;;;;;5089302;28;19905;-63
2022/01/24 03:53:39;;;;;;;;;;;8.00;66.60;;;;;;5073596;28;19948;-64
2022/01/24 03:56:05;;;;;;;;;;;8.00;66.70;;;;;;5073626;28;19912;-63
2022/01/24 03:58:31;;;;;;;;;;;8.00;66.60;;;;;;5055502;28;19909;-63
2022/01/24 04:00:57;;;;;;;;;;;8.10;66.70;;;;;;5073689;28;19911;-63
2022/01/24 04:03:23;;;;;;;;;;;8.10;66.80;;;;;;5073275;28;20409;-64
2022/01/24 04:05:49;;;;;;;;;;;8.10;66.80;;;;;;5073324;28;19948;-63
2022/01/24 04:08:15;;;;;;;;;;;8.10;66.80;;;;;;5073519;28;19915;-63
2022/01/24 04:10:43;;;;;;;;;;;8.10;67.60;;;;;;5073532;28;19904;-63
2022/01/24 04:13:22;;;;;;;;;;;8.10;66.90;;;;;;5073224;28;19963;-63
2022/01/24 04:16:40;;;;;;;;;;;8.10;66.90;;;;;;5073185;28;19916;-63
2022/01/24 04:24:08;;;;;;;;;;;8.20;67.00;;;;;;5014873;28;19909;-64
2022/01/24 04:26:34;;;;;;;;;;;8.20;67.00;;;;;;4998588;28;19912;-64
2022/01/24 04:29:00;;;;;;;;;;;8.10;66.80;;;;;;4998535;28;20471;-63
2022/01/24 04:31:29;;;;;;;;;;;8.20;66.90;;;;;;5014933;28;20007;-63
2022/01/24 04:33:54;;;;;;;;;;;8.20;66.90;;;;;;5014838;28;19909;-63
2022/01/24 04:36:20;;;;;;;;;;;8.20;66.90;;;;;;5014807;28;19932;-64
2022/01/24 04:38:46;;;;;;;;;;;8.20;66.90;;;;;;4998393;28;20242;-64
2022/01/24 04:41:25;;;;;;;;;;;8.20;66.90;;;;;;5014763;28;19913;-64
2022/01/24 04:51:54;;;;;;;;;;;8.20;66.80;;;;;;5015031;28;19943;-63
2022/01/24 04:54:39;;;;;;;;;;;8.20;66.80;;;;;;5032801;28;20275;-64
2022/01/24 04:57:07;;;;;;;;;;;8.20;66.80;;;;;;5076487;28;20005;-65
2022/01/24 04:59:33;;;;;;;;;;;8.20;66.80;;;;;;5076534;28;20011;-65
2022/01/24 05:01:58;;;;;;;;;;;8.20;66.70;;;;;;5076183;28;19939;-65
2022/01/24 05:04:24;;;;;;;;;;;8.10;66.50;;;;;;5076432;28;19963;-65
2022/01/24 05:06:50;;;;;;;;;;;8.10;66.50;;;;;;5076077;28;19904;-65
2022/01/24 05:09:17;;;;;;;;;;;8.10;66.40;;;;;;5076250;28;19904;-65
2022/01/24 05:11:58;;;;;;;;;;;8.00;66.40;;;;;;5075997;28;20003;-65
2022/01/24 05:25:20;;;;;;;;;;;7.90;66.80;;;;;;5076185;28;19935;-65
2022/01/24 05:27:46;;;;;;;;;;;7.90;66.90;;;;;;5076117;28;19905;-66
2022/01/24 05:30:14;;;;;;;;;;;7.90;67.00;;;;;;5075811;28;19905;-66
2022/01/24 05:32:40;;;;;;;;;;;8.00;67.80;;;;;;5075682;28;20359;-66
2022/01/24 05:35:05;;;;;;;;;;;8.00;67.10;;;;;;5074522;28;19958;-65
2022/01/24 05:37:31;;;;;;;;;;;8.00;66.90;;;;;;5091153;28;19931;-65
2022/01/24 05:39:57;;;;;;;;;;;8.00;66.90;;;;;;5075549;28;19911;-66
2022/01/24 05:42:23;;;;;;;;;;;8.00;66.80;;;;;;5057585;28;19944;-66
2022/01/24 05:44:49;;;;;;;;;;;8.00;66.80;;;;;;5075328;28;19911;-66
2022/01/24 05:47:18;;;;;;;;;;;8.00;66.80;;;;;;5090822;28;19954;-66
2022/01/24 05:49:46;;;;;;;;;;;8.10;66.90;;;;;;5057631;28;19904;-66
2022/01/24 05:52:12;;;;;;;;;;;8.10;66.90;;;;;;5075506;28;19957;-66
2022/01/24 05:54:39;;;;;;;;;;;8.10;66.90;;;;;;5075297;28;20071;-66
2022/01/24 05:57:05;;;;;;;;;;;8.10;66.80;;;;;;5074891;28;19919;-66
2022/01/24 05:59:31;;;;;;;;;;;8.00;66.60;;;;;;5090724;28;19905;-67
2022/01/24 06:01:56;;;;;;;;;;;8.00;66.60;;;;;;5075246;28;20237;-67
2022/01/24 06:04:22;;;;;;;;;;;8.00;66.60;;;;;;5075274;28;20349;-67
2022/01/24 06:06:48;;;;;;;;;;;8.00;66.60;;;;;;5074995;28;19915;-68
2022/01/24 06:09:13;;;;;;;;;;;8.00;66.60;;;;;;5057256;28;19904;-67
2022/01/24 06:11:39;;;;;;;;;;;8.00;66.70;;;;;;5075141;28;20342;-67
2022/01/24 06:14:07;;;;;;;;;;;8.00;66.70;;;;;;5074856;28;20337;-67
2022/01/24 06:16:33;;;;;;;;;;;8.00;66.70;;;;;;5056648;28;19959;-68
2022/01/24 06:18:59;;;;;;;;;;;8.00;66.80;;;;;;5074466;28;19921;-67
2022/01/24 06:21:28;;;;;;;;;;;8.00;66.80;;;;;;5056806;28;19909;-67
2022/01/24 06:23:53;;;;;;;;;;;8.00;66.70;;;;;;5074760;28;19911;-67
2022/01/24 06:26:19;;;;;;;;;;;8.00;66.60;;;;;;5089870;28;19905;-67
2022/01/24 06:28:44;;;;;;;;;;;7.90;66.60;;;;;;5074436;28;20380;-67
2022/01/24 06:31:10;;;;;;;;;;;7.90;66.70;;;;;;5074594;28;19951;-67
2022/01/24 06:33:36;;;;;;;;;;;8.00;66.80;;;;;;5090293;28;19905;-67
2022/01/24 06:36:02;;;;;;;;;;;8.00;67.00;;;;;;5074195;28;20272;-67
2022/01/24 06:38:28;;;;;;;;;;;8.00;67.00;;;;;;5089233;28;19916;-67
2022/01/24 06:40:54;;;;;;;;;;;8.00;67.00;;;;;;5056391;28;19916;-67
2022/01/24 06:43:20;;;;;;;;;;;8.00;67.00;;;;;;5056339;28;19904;-67
2022/01/24 06:45:46;;;;;;;;;;;8.00;67.00;;;;;;5074165;28;19904;-68
2022/01/24 06:48:11;;;;;;;;;;;8.00;67.00;;;;;;5089786;28;20308;-67
2022/01/24 06:50:37;;;;;;;;;;;8.00;66.90;;;;;;5073923;28;19951;-67
2022/01/24 06:53:06;;;;;;;;;;;8.00;66.90;;;;;;5074252;28;20233;-67
2022/01/24 06:55:31;;;;;;;;;;;8.00;66.80;;;;;;5073714;28;19938;-67
2022/01/24 06:57:57;;;;;;;;;;;8.00;66.80;;;;;;5073781;28;19914;-67
2022/01/24 07:00:26;;;;;;;;;;;8.00;66.90;;;;;;5056116;28;19912;-67
2022/01/24 07:02:55;;;;;;;;;;;8.00;66.80;;;;;;5073611;28;19911;-67
2022/01/24 07:05:22;;;;;;;;;;;8.00;66.80;;;;;;5073999;28;19909;-67
2022/01/24 07:07:47;;;;;;;;;;;8.00;66.80;;;;;;5073631;28;20263;-68
2022/01/24 07:10:13;;;;;;;;;;;8.00;66.90;;;;;;5074018;28;19912;-68
2022/01/24 07:12:39;;;;;;;;;;;8.00;66.90;;;;;;5056034;28;19912;-67
2022/01/24 07:15:09;;;;;;;;;;;8.00;67.00;;;;;;5073865;28;20016;-67
2022/01/24 07:18:57;;;;;;;;;;;8.00;67.10;;;;;;5074057;28;20252;-68
2022/01/24 07:20:21;;;;;;;;;;;8.00;67.10;;;;;;5066054;28;19962;-68
2022/01/24 07:22:50;;;;;;;;;;;8.10;67.10;;;;;;5073962;28;20248;-68
2022/01/24 07:25:15;;;;;;;;;;;8.10;67.20;;;;;;5055932;28;19931;-67
2022/01/24 07:27:43;;;;;;;;;;;8.10;67.30;;;;;;5055844;28;19904;-67
2022/01/24 07:30:09;;;;;;;;;;;8.20;67.40;;;;;;5073652;28;19904;-68
2022/01/24 07:32:35;;;;;;;;;;;8.20;67.30;;;;;;5056212;28;19958;-68
2022/01/24 07:35:01;;;;;;;;;;;8.20;67.30;;;;;;5073645;28;19908;-70
2022/01/24 07:37:26;;;;;;;;;;;8.20;67.30;;;;;;5067803;28;20338;-68
2022/01/24 07:39:52;;;;;;;;;;;8.30;67.30;;;;;;5070541;28;19908;-67
2022/01/24 07:42:28;;;;;;;;;;;8.30;67.40;;;;;;5070431;28;19904;-66
2022/01/24 07:44:54;;;;;;;;;;;8.40;67.40;;;;;;5064601;28;20409;-67
2022/01/24 07:47:20;;;;;;;;;;;8.40;67.30;;;;;;5071087;28;19953;-68
2022/01/24 07:49:49;;;;;;;;;;;8.40;67.30;;;;;;5042618;28;19909;-68
2022/01/24 07:52:15;;;;;;;;;;;8.50;67.30;;;;;;5073419;28;19920;-68
2022/01/24 07:54:41;;;;;;;;;;;8.50;68.10;;;;;;5085364;28;20370;-67
2022/01/24 07:57:06;;;;;;;;;;;8.60;67.40;;;;;;5083434;28;19912;-68
2022/01/24 07:59:32;;;;;;;;;;;8.60;67.50;;;;;;5060531;28;19912;-68
2022/01/24 08:02:02;;;;;;;;;;;8.70;67.50;;;;;;5060106;28;19944;-68
2022/01/24 08:04:28;;;;;;;;;;;8.70;67.60;;;;;;5046602;28;20392;-69
2022/01/24 08:06:54;;;;;;;;;;;8.80;67.60;;;;;;5076104;28;19915;-68
2022/01/24 08:09:19;;;;;;;;;;;8.80;67.60;;;;;;5077752;28;19975;-68
2022/01/24 08:11:45;;;;;;;;;;;8.90;67.70;;;;;;5059000;28;19946;-68
2022/01/24 08:14:10;;;;;;;;;;;8.90;67.60;;;;;;5077370;28;19909;-69
2022/01/24 08:16:37;;;;;;;;;;;9.00;67.70;;;;;;5077098;28;19909;-68
2022/01/24 08:19:03;;;;;;;;;;;9.10;67.80;;;;;;5077210;28;19928;-67
2022/01/24 08:21:28;;;;;;;;;;;9.10;67.80;;;;;;5057651;28;19982;-68
2022/01/24 08:23:55;;;;;;;;;;;9.20;67.80;;;;;;5077381;28;20348;-67
2022/01/24 08:26:21;;;;;;;;;;;9.20;67.80;;;;;;5092515;28;19999;-68
2022/01/24 08:28:47;;;;;;;;;;;9.30;67.80;;;;;;5076560;28;19951;-68
2022/01/24 08:31:13;;;;;;;;;;;9.30;67.70;;;;;;5076740;28;19905;-68
2022/01/24 08:33:38;;;;;;;;;;;9.30;67.40;;;;;;5058990;28;19912;-68
2022/01/24 08:36:07;;;;;;;;;;;9.40;67.50;;;;;;5058848;28;19912;-68
2022/01/24 08:38:36;;;;;;;;;;;9.40;67.50;;;;;;5058867;28;19931;-68
2022/01/24 08:41:09;;;;;;;;;;;9.50;67.40;;;;;;5077087;28;19904;-69
2022/01/24 08:43:51;;;;;;;;;;;9.60;67.50;;;;;;5092396;28;19908;-66
2022/01/24 08:46:17;;;;;;;;;;;9.60;67.20;;;;;;5076686;28;19923;-67
2022/01/24 08:48:43;;;;;;;;;;;9.60;66.90;;;;;;5076479;28;19995;-67
2022/01/24 08:51:09;;;;;;;;;;;9.70;67.10;;;;;;5091830;28;19966;-68
2022/01/24 08:53:35;;;;;;;;;;;9.70;67.10;;;;;;5076295;28;20325;-68
2022/01/24 08:56:04;;;;;;;;;;;9.80;67.10;;;;;;5076452;28;19954;-67
2022/01/24 08:58:30;;;;;;;;;;;9.80;67.20;;;;;;5076852;28;19912;-67
2022/01/24 09:00:56;;;;;;;;;;;9.90;67.30;;;;;;5058620;28;20224;-68
2022/01/24 09:03:22;;;;;;;;;;;9.90;67.10;;;;;;5076662;28;19904;-69
2022/01/24 09:05:49;;;;;;;;;;;10.00;67.20;;;;;;5076435;28;19904;-68
2022/01/24 09:08:18;;;;;;;;;;;10.10;67.10;;;;;;5057679;28;19954;-68
2022/01/24 09:10:46;;;;;;;;;;;10.10;66.80;;;;;;5075501;28;19904;-68
2022/01/24 09:13:12;;;;;;;;;;;10.10;66.40;;;;;;5058373;28;19991;-69
2022/01/24 09:15:37;;;;;;;;;;;10.10;66.10;;;;;;5075993;28;20335;-69
2022/01/24 09:18:03;;;;;;;;;;;10.20;66.00;;;;;;5076162;28;19955;-69
2022/01/24 09:20:29;;;;;;;;;;;10.20;66.00;;;;;;5075901;28;19954;-67
2022/01/24 09:22:54;;;;;;;;;;;10.30;65.90;;;;;;5076189;28;19959;-67
2022/01/24 09:25:21;;;;;;;;;;;10.30;65.70;;;;;;5075845;28;19904;-69
2022/01/24 09:27:47;;;;;;;;;;;10.30;65.70;;;;;;5057810;28;19912;-69
2022/01/24 09:30:15;;;;;;;;;;;10.40;65.80;;;;;;5058023;28;19954;-69
2022/01/24 09:32:41;;;;;;;;;;;10.40;65.60;;;;;;5057998;28;19950;-70
2022/01/24 09:35:07;;;;;;;;;;;10.50;65.70;;;;;;5075883;28;19912;-69
2022/01/24 09:37:33;;;;;;;;;;;10.50;66.10;;;;;;5057869;28;19948;-69
2022/01/24 09:39:59;;;;;;;;;;;10.60;66.10;;;;;;5075709;28;19904;-68
2022/01/24 09:42:25;;;;;;;;;;;10.70;66.00;;;;;;5091378;28;19905;-68
2022/01/24 09:44:51;;;;;;;;;;;10.80;66.10;;;;;;5075698;28;19905;-68
2022/01/24 09:47:17;;;;;;;;;;;10.80;65.80;;;;;;5075720;28;20341;-69
2022/01/24 09:49:45;;;;;;;;;;;10.90;65.60;;;;;;5075280;28;20015;-69
2022/01/24 09:52:13;;;;;;;;;;;10.90;65.40;;;;;;5075668;28;20002;-69
2022/01/24 09:54:39;;;;;;;;;;;11.00;65.10;;;;;;5057410;28;19908;-68
2022/01/24 09:57:04;;;;;;;;;;;11.00;64.70;;;;;;5075552;28;19912;-69
2022/01/24 09:59:31;;;;;;;;;;;11.10;64.50;;;;;;5075810;28;19959;-69
2022/01/24 10:01:57;;;;;;;;;;;11.10;64.00;;;;;;5057290;28;19966;-69
2022/01/24 10:04:25;;;;;;;;;;;11.10;63.80;;;;;;5075157;28;19932;-69
2022/01/24 10:07:01;;;;;;;;;;;11.10;63.90;;;;;;5075661;28;19983;-69
2022/01/24 10:09:31;;;;;;;;;;;11.20;64.30;;;;;;5057378;28;20237;-69
2022/01/24 10:12:05;;;;;;;;;;;11.30;64.40;;;;;;5074825;28;20396;-69
2022/01/24 10:17:19;;;;;;;;;;;11.40;64.20;;;;;;5075570;28;19920;-70
2022/01/24 10:19:45;;;;;;;;;;;11.50;64.00;;;;;;5074228;28;19921;-69
2022/01/24 10:22:11;;;;;;;;;;;11.50;63.50;;;;;;5075272;28;19905;-69
2022/01/24 10:24:41;;;;;;;;;;;11.50;63.00;;;;;;5074969;28;20302;-70
2022/01/24 10:27:12;;;;;;;;;;;11.50;62.70;;;;;;5056974;28;19952;-69
2022/01/24 10:29:49;;;;;;;;;;;11.50;62.60;;;;;;5074922;28;19905;-70
2022/01/24 10:32:34;;;;;;;;;;;11.40;62.20;;;;;;5074826;28;19912;-69
2022/01/24 10:35:18;;;;;;;;;;;11.40;62.20;;;;;;5056734;28;19908;-69
2022/01/24 10:37:47;;;;;;;;;;;11.40;62.40;;;;;;5074412;28;19995;-69
2022/01/24 10:40:34;;;;;;;;;;;11.40;62.50;;;;;;5056665;28;19905;-70
2022/01/24 10:43:20;;;;;;;;;;;11.30;62.40;;;;;;5074360;28;19911;-69
2022/01/24 10:45:46;;;;;;;;;;;11.30;62.30;;;;;;5074465;28;20264;-72
2022/01/24 10:48:13;;;;;;;;;;;11.30;61.90;;;;;;5074452;28;19904;-69
2022/01/24 10:50:39;;;;;;;;;;;11.30;61.80;;;;;;5056523;28;19904;-69
2022/01/24 10:53:12;;;;;;;;;;;11.40;62.10;;;;;;5074407;28;20374;-70
2022/01/24 10:55:39;;;;;;;;;;;11.40;62.30;;;;;;5074161;28;19958;-70
2022/01/24 10:58:06;;;;;;;;;;;11.50;62.30;;;;;;5074227;28;20011;-69
2022/01/24 11:00:32;;;;;;;;;;;11.60;61.70;;;;;;5056345;28;19904;-69
2022/01/24 11:03:03;;;;;;;;;;;11.70;61.80;;;;;;5074251;28;19904;-70
2022/01/24 11:05:36;;;;;;;;;;;11.80;61.40;;;;;;5089713;28;19904;-70
2022/01/24 11:08:01;;;;;;;;;;;11.90;60.70;;;;;;5056207;28;19908;-69
2022/01/24 11:10:31;;;;;;;;;;;11.90;60.30;;;;;;5074054;28;19911;-69
2022/01/24 11:12:57;;;;;;;;;;;12.00;60.30;;;;;;5074045;28;20225;-69
2022/01/24 11:15:24;;;;;;;;;;;12.00;60.10;;;;;;5055856;28;19947;-68
2022/01/24 11:17:50;;;;;;;;;;;12.10;59.80;;;;;;5055912;28;19908;-69
2022/01/24 11:20:18;;;;;;;;;;;12.10;59.70;;;;;;5055388;28;19927;-70
2022/01/24 11:22:51;;;;;;;;;;;12.10;59.60;;;;;;5073662;28;19905;-69
2022/01/24 11:25:17;;;;;;;;;;;12.00;59.10;;;;;;5055917;28;19959;-69
2022/01/24 11:27:47;;;;;;;;;;;12.00;58.90;;;;;;5055898;28;20345;-69
2022/01/24 11:30:24;;;;;;;;;;;12.00;58.60;;;;;;5066007;28;19912;-70
2022/01/24 11:32:57;;;;;;;;;;;12.00;58.40;;;;;;5055011;28;19978;-71
2022/01/24 11:35:29;;;;;;;;;;;12.00;58.50;;;;;;5074147;28;19915;-70
2022/01/24 11:37:56;;;;;;;;;;;12.00;58.40;;;;;;5073515;28;19916;-69
2022/01/24 11:40:25;;;;;;;;;;;12.10;58.60;;;;;;5073732;28;19911;-70
2022/01/24 11:42:51;;;;;;;;;;;12.20;58.80;;;;;;5055966;28;20252;-69
2022/01/24 11:45:32;;;;;;;;;;;12.30;58.50;;;;;;5073542;28;19909;-70
2022/01/24 11:48:19;;;;;;;;;;;12.30;58.10;;;;;;5073268;28;20344;-69
2022/01/24 11:51:17;;;;;;;;;;;12.50;58.50;;;;;;5073272;28;19909;-69
2022/01/24 11:53:45;;;;;;;;;;;12.60;58.60;;;;;;5031137;28;19956;-68
2022/01/24 11:56:31;;;;;;;;;;;12.70;58.60;;;;;;5014630;28;20493;-69
2022/01/24 11:59:15;;;;;;;;;;;12.70;58.10;;;;;;5014655;28;20419;-70
2022/01/24 12:01:41;;;;;;;;;;;12.80;58.10;;;;;;5014542;28;19905;-70
2022/01/24 12:04:06;;;;;;;;;;;12.90;58.50;;;;;;5031142;28;20000;-69
2022/01/24 12:06:51;;;;;;;;;;;13.00;58.50;;;;;;5031196;28;19996;-70
2022/01/24 12:09:23;;;;;;;;;;;13.00;58.50;;;;;;5031216;28;19905;-70
2022/01/24 12:11:53;;;;;;;;;;;13.10;58.20;;;;;;5014591;28;19916;-71
2022/01/24 12:14:35;;;;;;;;;;;13.10;57.60;;;;;;5014541;28;19909;-70
2022/01/24 12:17:01;;;;;;;;;;;13.10;57.10;;;;;;5031059;28;19913;-69
2022/01/24 12:19:31;;;;;;;;;;;13.00;56.80;;;;;;5043399;28;19921;-69
2022/01/24 12:21:57;;;;;;;;;;;13.00;56.80;;;;;;5034170;28;19909;-69
2022/01/24 12:24:22;;;;;;;;;;;13.00;56.90;;;;;;5051214;28;19931;-69
2022/01/24 12:26:50;;;;;;;;;;;13.00;57.10;;;;;;5034192;28;20300;-69
2022/01/24 12:29:28;;;;;;;;;;;13.00;56.90;;;;;;5034033;28;21059;-69
2022/01/24 12:31:56;;;;;;;;;;;13.00;56.60;;;;;;5052888;28;20333;-68
2022/01/24 12:34:23;;;;;;;;;;;13.00;56.40;;;;;;5035174;28;20003;-69
2022/01/24 12:36:52;;;;;;;;;;;13.00;56.60;;;;;;5053102;28;19995;-69
2022/01/24 12:39:25;;;;;;;;;;;13.10;57.00;;;;;;5035254;28;20237;-69
2022/01/24 12:41:58;;;;;;;;;;;13.10;56.60;;;;;;5052846;28;19912;-70
2022/01/24 12:47:13;;;;;;;;;;;13.10;56.40;;;;;;5056759;28;20348;-70
2022/01/24 12:49:43;;;;;;;;;;;13.10;56.30;;;;;;5072085;28;20403;-69
2022/01/24 12:52:10;;;;;;;;;;;13.20;56.40;;;;;;5060811;28;20033;-69
2022/01/24 12:54:39;;;;;;;;;;;13.20;56.30;;;;;;5038628;28;19956;-69
2022/01/24 12:57:10;;;;;;;;;;;13.20;56.00;;;;;;5039137;28;20022;-70
2022/01/24 12:59:36;;;;;;;;;;;13.20;56.00;;;;;;5057009;28;20403;-69
2022/01/24 13:02:04;;;;;;;;;;;13.20;55.90;;;;;;5057174;28;19912;-70
2022/01/24 13:04:34;;;;;;;;;;;13.20;55.70;;;;;;5056827;28;19912;-69
2022/01/24 13:07:02;;;;;;;;;;;13.10;55.50;;;;;;5056366;28;19905;-70
2022/01/24 13:09:29;;;;;;;;;;;13.10;55.80;;;;;;5039714;28;19905;-70
2022/01/24 13:11:56;;;;;;;;;;;13.10;55.90;;;;;;5029416;28;19909;-70
2022/01/24 13:14:31;;;;;;;;;;;13.00;55.90;;;;;;5023287;28;19909;-69
2022/01/24 13:22:42;;;;;;;;;;;13.00;55.60;;;;;;5070851;28;19916;-69
2022/01/24 13:25:15;;;;;;;;;;;13.00;55.70;;;;;;5076781;28;19916;-69
2022/01/24 13:27:52;;;;;;;;;;;12.90;55.10;;;;;;5058779;28;19927;-69
2022/01/24 13:30:32;;;;;;;;;;;12.90;54.80;;;;;;5091744;28;19954;-70
2022/01/24 13:32:59;;;;;;;;;;;12.80;54.70;;;;;;5058168;28;19905;-70
2022/01/24 13:35:31;;;;;;;;;;;12.70;54.30;;;;;;5091723;28;20355;-69
2022/01/24 13:37:57;;;;;;;;;;;12.70;54.00;;;;;;5058340;28;19999;-70
2022/01/24 13:40:30;;;;;;;;;;;12.60;53.80;;;;;;5091088;28;19904;-70
2022/01/24 13:42:56;;;;;;;;;;;12.60;53.80;;;;;;5091714;28;19931;-69
2022/01/24 13:45:24;;;;;;;;;;;12.50;53.70;;;;;;5058074;28;20375;-69
2022/01/24 13:47:59;;;;;;;;;;;12.40;53.70;;;;;;5057814;28;19904;-68
2022/01/24 13:50:27;;;;;;;;;;;12.40;54.00;;;;;;5075622;28;20366;-69
2022/01/24 13:52:54;;;;;;;;;;;12.40;54.30;;;;;;5057912;28;19904;-68
2022/01/24 13:55:20;;;;;;;;;;;12.30;54.50;;;;;;5057031;28;20011;-68
2022/01/24 13:57:50;;;;;;;;;;;12.30;54.70;;;;;;5058364;28;20007;-68
2022/01/24 14:00:20;;;;;;;;;;;12.40;54.80;;;;;;5057726;28;19953;-69
2022/01/24 14:02:50;;;;;;;;;;;12.30;54.80;;;;;;5074250;28;19912;-70
2022/01/24 14:05:16;;;;;;;;;;;12.30;54.80;;;;;;5060880;28;19961;-70
2022/01/24 14:07:42;;;;;;;;;;;12.40;54.90;;;;;;5082966;28;20376;-69
2022/01/24 14:10:09;;;;;;;;;;;12.30;54.90;;;;;;5075177;28;19904;-69
2022/01/24 14:12:44;;;;;;;;;;;12.30;54.80;;;;;;5074607;28;19905;-69
2022/01/24 14:15:20;;;;;;;;;;;12.30;54.70;;;;;;5056426;28;19920;-70
2022/01/24 14:18:22;;;;;;;;;;;12.30;54.70;;;;;;5074903;28;19909;-70
2022/01/24 14:20:53;;;;;;;;;;;12.30;54.70;;;;;;5089314;28;19928;-70
2022/01/24 14:23:28;;;;;;;;;;;12.30;54.70;;;;;;5056628;28;19954;-69
2022/01/24 14:25:54;;;;;;;;;;;12.30;54.80;;;;;;5063005;28;19964;-69
2022/01/24 14:28:22;;;;;;;;;;;12.30;54.70;;;;;;5076652;28;20006;-70
2022/01/24 14:30:48;;;;;;;;;;;12.30;54.70;;;;;;5092945;28;19930;-69
2022/01/24 14:33:18;;;;;;;;;;;12.30;54.80;;;;;;5094532;28;19904;-71
2022/01/24 14:35:49;;;;;;;;;;;12.30;54.50;;;;;;5069743;28;20344;-69
2022/01/24 14:38:32;;;;;;;;;;;12.30;54.50;;;;;;5082167;28;19912;-70
2022/01/24 14:41:02;;;;;;;;;;;12.30;54.70;;;;;;5056509;28;20363;-70
2022/01/24 14:46:14;;;;;;;;;;;12.30;54.80;;;;;;5064470;28;20019;-70
2022/01/24 14:48:41;;;;;;;;;;;12.30;54.70;;;;;;5035875;28;19916;-70
2022/01/24 14:51:06;;;;;;;;;;;12.30;54.70;;;;;;5036430;28;19915;-70
2022/01/24 14:53:34;;;;;;;;;;;12.30;54.70;;;;;;5054478;28;20003;-70
2022/01/24 14:56:00;;;;;;;;;;;12.30;54.70;;;;;;5059965;28;19915;-72
2022/01/24 14:58:26;;;;;;;;;;;12.30;54.60;;;;;;5073469;28;19954;-70
2022/01/24 15:00:52;;;;;;;;;;;12.30;54.60;;;;;;5089735;28;19959;-71
2022/01/24 15:03:18;;;;;;;;;;;12.20;54.50;;;;;;5055600;28;19911;-70
2022/01/24 15:05:44;;;;;;;;;;;12.20;54.50;;;;;;5055597;28;19954;-72
2022/01/24 15:08:10;;;;;;;;;;;12.20;54.50;;;;;;5067203;28;19986;-71
2022/01/24 15:10:36;;;;;;;;;;;12.20;54.30;;;;;;5053630;28;19964;-69
2022/01/24 15:13:07;;;;;;;;;;;12.20;54.20;;;;;;5056956;28;20321;-69
2022/01/24 15:15:36;;;;;;;;;;;12.10;53.80;;;;;;5088942;28;19912;-68
2022/01/24 15:26:03;;;;;;;;;;;11.90;53.70;;;;;;5062017;28;19958;-71
2022/01/24 15:28:29;;;;;;;;;;;11.90;53.70;;;;;;5053294;28;19905;-70
2022/01/24 15:30:55;;;;;;;;;;;11.80;53.80;;;;;;5035565;28;20311;-70
2022/01/24 15:33:20;;;;;;;;;;;11.80;53.70;;;;;;5053168;28;20003;-71
2022/01/24 15:35:46;;;;;;;;;;;11.70;53.70;;;;;;5053678;28;19913;-70
2022/01/24 15:38:13;;;;;;;;;;;11.70;53.60;;;;;;5053417;28;19909;-69
2022/01/24 15:40:40;;;;;;;;;;;11.70;53.50;;;;;;5068817;28;19962;-70
2022/01/24 15:43:27;;;;;;;;;;;11.60;53.20;;;;;;5053019;28;19950;-69
2022/01/24 15:46:22;;;;;;;;;;;11.50;53.00;;;;;;5064161;28;19909;-69
2022/01/24 15:48:45;;;;;;;;;;;11.50;53.00;;;;;;5052622;28;19908;-68
2022/01/24 15:51:12;;;;;;;;;;;11.40;53.00;;;;;;5053533;28;20291;-69
2022/01/24 15:53:38;;;;;;;;;;;11.40;53.20;;;;;;5053234;28;20039;-69
2022/01/24 15:56:17;;;;;;;;;;;11.40;53.30;;;;;;5053498;28;19917;-70
2022/01/24 15:58:42;;;;;;;;;;;11.30;53.20;;;;;;5053135;28;19955;-69
2022/01/24 16:01:08;;;;;;;;;;;11.20;53.00;;;;;;5053133;28;20341;-70
2022/01/24 16:03:34;;;;;;;;;;;11.20;53.20;;;;;;5052890;28;19912;-70
2022/01/24 16:06:00;;;;;;;;;;;11.10;53.30;;;;;;5035517;28;19908;-70
2022/01/24 16:08:28;;;;;;;;;;;11.10;53.30;;;;;;5068400;28;20360;-71
2022/01/24 16:10:54;;;;;;;;;;;11.00;53.50;;;;;;5052733;28;19904;-71